sensor_id;sensor_type;location;lat;lon;timestamp;temperature;humidity
2893;DHT22;1456;51.840;12.184;2023-04-03T00:01:25;0.10;99.90
2893;DHT22;1456;51.840;12.184;2023-04-03T00:03:50;0.10;99.90
2893;DHT22;1456;51.840;12.184;2023-04-03T00:06:16;0.10;99.90
2893;DHT22;1456;51.840;12.184;2023-04-03T00:08:42;0.10;99.90
2893;DHT22;1456;51.840;12.184;2023-04-03T00:11:08;0.00;99.90
2893;DHT22;1456;51.840;12.184;2023-04-03T00:13:33;0.00;99.90
2893;DHT22;1456;51.840;12.184;2023-04-03T00:15:59;0.00;99.90
2893;DHT22;1456;51.840;12.184;2023-04-03T00:18:26;-0.10;99.90
2893;DHT22;1456;51.840;12.184;2023-04-03T00:20:52;-0.10;99.90
2893;DHT22;1456;51.840;12.184;2023-04-03T00:23:18;-0.10;99.90
2893;DHT22;1456;51.840;12.184;2023-04-03T00:25:43;-0.20;99.90
2893;DHT22;1456;51.840;12.184;2023-04-03T00:28:10;-0.20;99.90
2893;DHT22;1456;51.840;12.184;2023-04-03T00:30:36;-0.20;99.90
2893;DHT22;1456;51.840;12.184;2023-04-03T00:33:01;-0.30;99.90
2893;DHT22;1456;51.840;12.184;2023-04-03T00:35:27;-0.30;99.90
2893;DHT22;1456;51.840;12.184;2023-04-03T00:37:54;-0.30;99.90
2893;DHT22;1456;51.840;12.184;2023-04-03T00:40:21;-0.40;99.90
2893;DHT22;1456;51.840;12.184;2023-04-03T00:42:47;-0.40;99.90
2893;DHT22;1456;51.840;12.184;2023-04-03T00:47:45;-0.40;99.90
2893;DHT22;1456;51.840;12.184;2023-04-03T00:50:11;-0.40;99.90
2893;DHT22;1456;51.840;12.184;2023-04-03T00:52:36;-0.50;99.90
2893;DHT22;1456;51.840;12.184;2023-04-03T00:55:04;-0.50;99.90
2893;DHT22;1456;51.840;12.184;2023-04-03T00:57:31;-0.50;99.90
2893;DHT22;1456;51.840;12.184;2023-04-03T01:00:02;-0.40;99.90
2893;DHT22;1456;51.840;12.184;2023-04-03T01:02:30;-0.60;99.90
2893;DHT22;1456;51.840;12.184;2023-04-03T01:04:55;-0.60;99.90
2893;DHT22;1456;51.840;12.184;2023-04-03T01:07:26;-0.60;99.90
2893;DHT22;1456;51.840;12.184;2023-04-03T01:09:53;-0.70;99.90
2893;DHT22;1456;51.840;12.184;2023-04-03T01:12:32;-0.70;99.90
2893;DHT22;1456;51.840;12.184;2023-04-03T01:15:00;-0.70;99.90
2893;DHT22;1456;51.840;12.184;2023-04-03T01:17:27;-0.80;99.90
2893;DHT22;1456;51.840;12.184;2023-04-03T01:25:45;-0.80;99.90
2893;DHT22;1456;51.840;12.184;2023-04-03T01:28:13;-0.80;99.90
2893;DHT22;1456;51.840;12.184;2023-04-03T01:30:47;-0.90;99.90
2893;DHT22;1456;51.840;12.184;2023-04-03T01:33:15;-0.90;99.90
2893;DHT22;1456;51.840;12.184;2023-04-03T01:35:41;-0.90;99.90
2893;DHT22;1456;51.840;12.184;2023-04-03T01:38:06;-0.90;99.90
2893;DHT22;1456;51.840;12.184;2023-04-03T01:40:32;-0.80;99.90
2893;DHT22;1456;51.840;12.184;2023-04-03T01:42:58;-1.00;99.90
2893;DHT22;1456;51.840;12.184;2023-04-03T01:45:23;-1.00;99.90
2893;DHT22;1456;51.840;12.184;2023-04-03T01:47:49;-1.00;99.90
2893;DHT22;1456;51.840;12.184;2023-04-03T01:50:14;-1.00;99.90
2893;DHT22;1456;51.840;12.184;2023-04-03T01:52:40;-1.00;99.90
2893;DHT22;1456;51.840;12.184;2023-04-03T01:55:06;-1.00;99.90
2893;DHT22;1456;51.840;12.184;2023-04-03T01:57:31;-1.00;99.90
2893;DHT22;1456;51.840;12.184;2023-04-03T01:59:57;-1.00;99.90
2893;DHT22;1456;51.840;12.184;2023-04-03T02:02:22;-1.00;99.90
2893;DHT22;1456;51.840;12.184;2023-04-03T02:04:48;-1.00;99.90
2893;DHT22;1456;51.840;12.184;2023-04-03T02:07:13;-1.10;99.90
2893;DHT22;1456;51.840;12.184;2023-04-03T02:09:39;-1.00;99.90
2893;DHT22;1456;51.840;12.184;2023-04-03T02:12:05;-1.10;99.90
2893;DHT22;1456;51.840;12.184;2023-04-03T02:14:31;-1.10;99.90
2893;DHT22;1456;51.840;12.184;2023-04-03T02:16:57;-1.20;99.90
2893;DHT22;1456;51.840;12.184;2023-04-03T02:19:22;-1.10;99.90
2893;DHT22;1456;51.840;12.184;2023-04-03T02:21:48;-1.10;99.90
2893;DHT22;1456;51.840;12.184;2023-04-03T02:24:13;-1.10;99.90
2893;DHT22;1456;51.840;12.184;2023-04-03T02:26:39;-1.20;99.90
2893;DHT22;1456;51.840;12.184;2023-04-03T02:29:05;-1.20;99.90
2893;DHT22;1456;51.840;12.184;2023-04-03T02:31:31;-1.20;99.90
2893;DHT22;1456;51.840;12.184;2023-04-03T02:33:56;-1.20;99.90
2893;DHT22;1456;51.840;12.184;2023-04-03T02:36:22;-1.20;99.90
2893;DHT22;1456;51.840;12.184;2023-04-03T02:38:47;-1.20;99.90
2893;DHT22;1456;51.840;12.184;2023-04-03T02:41:14;-1.20;99.90
2893;DHT22;1456;51.840;12.184;2023-04-03T02:43:41;-1.20;99.90
2893;DHT22;1456;51.840;12.184;2023-04-03T02:46:06;-1.30;99.90
2893;DHT22;1456;51.840;12.184;2023-04-03T02:48:32;-1.10;99.90
2893;DHT22;1456;51.840;12.184;2023-04-03T02:50:58;-1.10;99.90
2893;DHT22;1456;51.840;12.184;2023-04-03T02:53:23;-1.30;99.90
2893;DHT22;1456;51.840;12.184;2023-04-03T02:55:49;-1.30;99.90
2893;DHT22;1456;51.840;12.184;2023-04-03T02:58:15;-1.30;99.90
2893;DHT22;1456;51.840;12.184;2023-04-03T03:00:41;-1.30;99.90
2893;DHT22;1456;51.840;12.184;2023-04-03T03:03:07;-1.30;99.90
2893;DHT22;1456;51.840;12.184;2023-04-03T03:05:33;-1.40;99.90
2893;DHT22;1456;51.840;12.184;2023-04-03T03:07:58;-1.40;99.90
2893;DHT22;1456;51.840;12.184;2023-04-03T03:10:24;-1.40;99.90
2893;DHT22;1456;51.840;12.184;2023-04-03T03:12:50;-1.40;99.90
2893;DHT22;1456;51.840;12.184;2023-04-03T03:15:17;-1.40;99.90
2893;DHT22;1456;51.840;12.184;2023-04-03T03:17:44;-1.50;99.90
2893;DHT22;1456;51.840;12.184;2023-04-03T03:20:10;-1.40;99.90
2893;DHT22;1456;51.840;12.184;2023-04-03T03:22:37;-1.40;99.90
2893;DHT22;1456;51.840;12.184;2023-04-03T03:25:03;-1.50;99.90
2893;DHT22;1456;51.840;12.184;2023-04-03T03:27:29;-1.50;99.90
2893;DHT22;1456;51.840;12.184;2023-04-03T03:29:55;-1.50;99.90
2893;DHT22;1456;51.840;12.184;2023-04-03T03:32:20;-1.60;99.90
2893;DHT22;1456;51.840;12.184;2023-04-03T03:34:46;-1.60;99.90
2893;DHT22;1456;51.840;12.184;2023-04-03T03:37:12;-1.60;99.90
2893;DHT22;1456;51.840;12.184;2023-04-03T03:39:37;-1.60;99.90
2893;DHT22;1456;51.840;12.184;2023-04-03T03:42:03;-1.70;99.90
2893;DHT22;1456;51.840;12.184;2023-04-03T03:44:28;-1.60;99.90
2893;DHT22;1456;51.840;12.184;2023-04-03T03:46:54;-1.60;99.90
2893;DHT22;1456;51.840;12.184;2023-04-03T03:49:20;-1.60;99.90
2893;DHT22;1456;51.840;12.184;2023-04-03T03:51:46;-1.70;99.90
2893;DHT22;1456;51.840;12.184;2023-04-03T03:54:13;-1.70;99.90
2893;DHT22;1456;51.840;12.184;2023-04-03T03:56:39;-1.70;99.90
2893;DHT22;1456;51.840;12.184;2023-04-03T03:59:04;-1.70;99.90
2893;DHT22;1456;51.840;12.184;2023-04-03T04:01:30;-1.80;99.90
2893;DHT22;1456;51.840;12.184;2023-04-03T04:03:55;-1.70;99.90
2893;DHT22;1456;51.840;12.184;2023-04-03T04:06:21;-1.80;99.90
2893;DHT22;1456;51.840;12.184;2023-04-03T04:08:47;-1.70;99.90
2893;DHT22;1456;51.840;12.184;2023-04-03T04:11:12;-1.80;99.90
2893;DHT22;1456;51.840;12.184;2023-04-03T04:13:38;-1.90;99.90
2893;DHT22;1456;51.840;12.184;2023-04-03T04:16:04;-1.90;99.90
2893;DHT22;1456;51.840;12.184;2023-04-03T04:18:29;-1.90;99.90
2893;DHT22;1456;51.840;12.184;2023-04-03T04:20:55;-1.90;99.90
2893;DHT22;1456;51.840;12.184;2023-04-03T04:23:20;-2.00;99.90
2893;DHT22;1456;51.840;12.184;2023-04-03T04:25:46;-1.80;99.90
2893;DHT22;1456;51.840;12.184;2023-04-03T04:28:12;-1.90;99.90
2893;DHT22;1456;51.840;12.184;2023-04-03T04:30:38;-2.00;99.90
2893;DHT22;1456;51.840;12.184;2023-04-03T04:33:03;-1.90;99.90
2893;DHT22;1456;51.840;12.184;2023-04-03T04:35:29;-2.00;99.90
2893;DHT22;1456;51.840;12.184;2023-04-03T04:37:54;-2.00;99.90
2893;DHT22;1456;51.840;12.184;2023-04-03T04:40:20;-2.00;99.90
2893;DHT22;1456;51.840;12.184;2023-04-03T04:42:46;-2.00;99.90
2893;DHT22;1456;51.840;12.184;2023-04-03T04:45:11;-2.00;99.90
2893;DHT22;1456;51.840;12.184;2023-04-03T04:47:37;-2.00;99.90
2893;DHT22;1456;51.840;12.184;2023-04-03T04:50:02;-2.00;99.90
2893;DHT22;1456;51.840;12.184;2023-04-03T04:52:28;-2.00;99.90
2893;DHT22;1456;51.840;12.184;2023-04-03T04:54:54;-2.00;99.90
2893;DHT22;1456;51.840;12.184;2023-04-03T04:57:20;-2.00;99.90
2893;DHT22;1456;51.840;12.184;2023-04-03T04:59:46;-1.90;99.90
2893;DHT22;1456;51.840;12.184;2023-04-03T05:02:12;-1.80;99.90
2893;DHT22;1456;51.840;12.184;2023-04-03T05:04:38;-1.90;99.90
2893;DHT22;1456;51.840;12.184;2023-04-03T05:07:03;-1.90;99.90
2893;DHT22;1456;51.840;12.184;2023-04-03T05:09:29;-1.80;99.90
2893;DHT22;1456;51.840;12.184;2023-04-03T05:11:54;-1.80;99.90
2893;DHT22;1456;51.840;12.184;2023-04-03T05:14:21;-1.70;99.90
2893;DHT22;1456;51.840;12.184;2023-04-03T05:16:46;-1.70;99.90
2893;DHT22;1456;51.840;12.184;2023-04-03T05:19:13;-1.70;99.90
2893;DHT22;1456;51.840;12.184;2023-04-03T05:21:38;-1.60;99.90
2893;DHT22;1456;51.840;12.184;2023-04-03T05:24:04;-1.50;99.90
2893;DHT22;1456;51.840;12.184;2023-04-03T05:26:30;-1.50;99.90
2893;DHT22;1456;51.840;12.184;2023-04-03T05:28:57;-1.40;99.90
2893;DHT22;1456;51.840;12.184;2023-04-03T05:31:22;-1.40;99.90
2893;DHT22;1456;51.840;12.184;2023-04-03T05:33:48;-1.30;99.90
2893;DHT22;1456;51.840;12.184;2023-04-03T05:36:14;-1.20;99.90
2893;DHT22;1456;51.840;12.184;2023-04-03T05:38:39;-1.10;99.90
2893;DHT22;1456;51.840;12.184;2023-04-03T05:41:05;-1.00;99.90
2893;DHT22;1456;51.840;12.184;2023-04-03T05:43:31;-0.90;99.90
2893;DHT22;1456;51.840;12.184;2023-04-03T05:45:56;-0.80;99.90
2893;DHT22;1456;51.840;12.184;2023-04-03T05:48:22;-0.60;99.90
2893;DHT22;1456;51.840;12.184;2023-04-03T05:50:47;-0.60;99.90
2893;DHT22;1456;51.840;12.184;2023-04-03T05:53:25;-0.50;99.90
2893;DHT22;1456;51.840;12.184;2023-04-03T05:55:51;-0.40;99.90
2893;DHT22;1456;51.840;12.184;2023-04-03T05:58:16;-0.30;99.90
2893;DHT22;1456;51.840;12.184;2023-04-03T06:00:42;-0.20;99.90
2893;DHT22;1456;51.840;12.184;2023-04-03T06:03:07;-0.10;99.90
2893;DHT22;1456;51.840;12.184;2023-04-03T06:05:33;0.00;99.90
2893;DHT22;1456;51.840;12.184;2023-04-03T06:08:00;0.10;99.90
2893;DHT22;1456;51.840;12.184;2023-04-03T06:10:25;0.20;99.90
2893;DHT22;1456;51.840;12.184;2023-04-03T06:12:51;0.30;99.90
2893;DHT22;1456;51.840;12.184;2023-04-03T06:15:17;0.40;99.90
2893;DHT22;1456;51.840;12.184;2023-04-03T06:17:42;0.50;99.90
2893;DHT22;1456;51.840;12.184;2023-04-03T06:20:08;0.70;99.90
2893;DHT22;1456;51.840;12.184;2023-04-03T06:22:34;0.80;99.90
2893;DHT22;1456;51.840;12.184;2023-04-03T06:25:00;0.90;99.90
2893;DHT22;1456;51.840;12.184;2023-04-03T06:27:26;1.10;99.90
2893;DHT22;1456;51.840;12.184;2023-04-03T06:29:51;1.30;99.90
2893;DHT22;1456;51.840;12.184;2023-04-03T06:32:17;1.40;99.90
2893;DHT22;1456;51.840;12.184;2023-04-03T06:34:42;1.50;99.90
2893;DHT22;1456;51.840;12.184;2023-04-03T06:37:17;1.60;99.90
2893;DHT22;1456;51.840;12.184;2023-04-03T06:39:43;1.70;99.90
2893;DHT22;1456;51.840;12.184;2023-04-03T06:42:09;1.80;99.90
2893;DHT22;1456;51.840;12.184;2023-04-03T06:44:35;1.90;99.90
2893;DHT22;1456;51.840;12.184;2023-04-03T06:47:00;2.00;99.90
2893;DHT22;1456;51.840;12.184;2023-04-03T06:49:26;2.10;99.90
2893;DHT22;1456;51.840;12.184;2023-04-03T06:51:51;2.20;99.90
2893;DHT22;1456;51.840;12.184;2023-04-03T06:54:17;2.30;99.90
2893;DHT22;1456;51.840;12.184;2023-04-03T06:56:43;2.40;99.90
2893;DHT22;1456;51.840;12.184;2023-04-03T06:59:09;2.60;99.90
2893;DHT22;1456;51.840;12.184;2023-04-03T07:01:35;2.70;99.90
2893;DHT22;1456;51.840;12.184;2023-04-03T07:04:00;2.80;99.90
2893;DHT22;1456;51.840;12.184;2023-04-03T07:06:26;2.90;99.90
2893;DHT22;1456;51.840;12.184;2023-04-03T07:08:54;3.10;99.90
2893;DHT22;1456;51.840;12.184;2023-04-03T07:11:20;3.10;99.90
2893;DHT22;1456;51.840;12.184;2023-04-03T07:13:45;3.10;99.90
2893;DHT22;1456;51.840;12.184;2023-04-03T07:16:11;3.10;99.90
2893;DHT22;1456;51.840;12.184;2023-04-03T07:18:36;3.10;99.90
2893;DHT22;1456;51.840;12.184;2023-04-03T07:21:02;3.20;99.90
2893;DHT22;1456;51.840;12.184;2023-04-03T07:23:28;3.30;99.90
2893;DHT22;1456;51.840;12.184;2023-04-03T07:25:53;3.40;99.90
2893;DHT22;1456;51.840;12.184;2023-04-03T07:28:19;3.50;99.90
2893;DHT22;1456;51.840;12.184;2023-04-03T07:30:52;3.60;99.90
2893;DHT22;1456;51.840;12.184;2023-04-03T07:33:21;3.60;99.90
2893;DHT22;1456;51.840;12.184;2023-04-03T07:35:46;3.60;99.90
2893;DHT22;1456;51.840;12.184;2023-04-03T07:38:12;3.70;99.90
2893;DHT22;1456;51.840;12.184;2023-04-03T07:40:38;3.90;99.90
2893;DHT22;1456;51.840;12.184;2023-04-03T07:43:04;4.30;99.90
2893;DHT22;1456;51.840;12.184;2023-04-03T07:45:30;4.90;99.90
2893;DHT22;1456;51.840;12.184;2023-04-03T07:47:56;5.30;97.40
2893;DHT22;1456;51.840;12.184;2023-04-03T07:50:21;5.50;96.10
2893;DHT22;1456;51.840;12.184;2023-04-03T07:52:47;5.60;96.40
2893;DHT22;1456;51.840;12.184;2023-04-03T07:55:13;5.50;94.90
2893;DHT22;1456;51.840;12.184;2023-04-03T07:57:39;5.00;93.50
2893;DHT22;1456;51.840;12.184;2023-04-03T08:00:05;4.60;94.50
2893;DHT22;1456;51.840;12.184;2023-04-03T08:02:31;4.60;94.90
2893;DHT22;1456;51.840;12.184;2023-04-03T08:05:00;4.60;94.90
2893;DHT22;1456;51.840;12.184;2023-04-03T08:07:25;4.80;94.80
2893;DHT22;1456;51.840;12.184;2023-04-03T08:09:51;4.90;94.50
2893;DHT22;1456;51.840;12.184;2023-04-03T08:12:16;5.00;94.50
2893;DHT22;1456;51.840;12.184;2023-04-03T08:14:42;5.00;93.30
2893;DHT22;1456;51.840;12.184;2023-04-03T08:17:08;5.00;93.00
2893;DHT22;1456;51.840;12.184;2023-04-03T08:19:40;5.10;93.50
2893;DHT22;1456;51.840;12.184;2023-04-03T08:22:06;5.10;93.10
2893;DHT22;1456;51.840;12.184;2023-04-03T08:24:32;5.40;92.90
2893;DHT22;1456;51.840;12.184;2023-04-03T08:26:58;5.50;91.90
2893;DHT22;1456;51.840;12.184;2023-04-03T08:29:24;5.30;92.10
2893;DHT22;1456;51.840;12.184;2023-04-03T08:31:50;5.40;92.70
2893;DHT22;1456;51.840;12.184;2023-04-03T08:34:16;5.50;92.40
2893;DHT22;1456;51.840;12.184;2023-04-03T08:36:42;5.60;91.60
2893;DHT22;1456;51.840;12.184;2023-04-03T08:39:08;5.50;91.30
2893;DHT22;1456;51.840;12.184;2023-04-03T08:41:34;5.50;92.20
2893;DHT22;1456;51.840;12.184;2023-04-03T08:44:02;5.10;90.70
2893;DHT22;1456;51.840;12.184;2023-04-03T08:46:37;5.00;90.90
2893;DHT22;1456;51.840;12.184;2023-04-03T08:49:07;4.80;91.20
2893;DHT22;1456;51.840;12.184;2023-04-03T08:51:35;4.90;91.60
2893;DHT22;1456;51.840;12.184;2023-04-03T08:54:03;5.30;91.10
2893;DHT22;1456;51.840;12.184;2023-04-03T08:56:31;6.00;90.10
2893;DHT22;1456;51.840;12.184;2023-04-03T08:59:00;6.90;91.70
2893;DHT22;1456;51.840;12.184;2023-04-03T09:01:36;7.60;90.80
2893;DHT22;1456;51.840;12.184;2023-04-03T09:04:05;8.00;88.80
2893;DHT22;1456;51.840;12.184;2023-04-03T09:06:34;7.90;84.10
2893;DHT22;1456;51.840;12.184;2023-04-03T09:11:27;7.90;85.50
2893;DHT22;1456;51.840;12.184;2023-04-03T09:13:59;7.90;86.20
2893;DHT22;1456;51.840;12.184;2023-04-03T09:19:06;7.90;84.20
2893;DHT22;1456;51.840;12.184;2023-04-03T09:21:36;7.40;84.10
2893;DHT22;1456;51.840;12.184;2023-04-03T09:24:04;7.20;83.00
2893;DHT22;1456;51.840;12.184;2023-04-03T09:26:36;7.20;83.40
2893;DHT22;1456;51.840;12.184;2023-04-03T09:29:07;7.10;82.90
2893;DHT22;1456;51.840;12.184;2023-04-03T09:34:02;7.60;88.60
2893;DHT22;1456;51.840;12.184;2023-04-03T09:36:47;8.00;87.90
2893;DHT22;1456;51.840;12.184;2023-04-03T09:39:17;8.20;85.80
2893;DHT22;1456;51.840;12.184;2023-04-03T09:42:05;8.10;83.20
2893;DHT22;1456;51.840;12.184;2023-04-03T09:44:34;7.90;82.50
2893;DHT22;1456;51.840;12.184;2023-04-03T09:47:17;7.60;81.20
2893;DHT22;1456;51.840;12.184;2023-04-03T09:49:43;7.40;82.40
2893;DHT22;1456;51.840;12.184;2023-04-03T09:57:39;6.30;78.60
2893;DHT22;1456;51.840;12.184;2023-04-03T10:00:04;6.20;78.60
2893;DHT22;1456;51.840;12.184;2023-04-03T10:04:59;6.40;79.40
2893;DHT22;1456;51.840;12.184;2023-04-03T10:07:26;7.00;79.70
2893;DHT22;1456;51.840;12.184;2023-04-03T10:09:59;8.30;83.00
2893;DHT22;1456;51.840;12.184;2023-04-03T10:12:25;9.70;79.70
2893;DHT22;1456;51.840;12.184;2023-04-03T10:17:36;9.70;73.80
2893;DHT22;1456;51.840;12.184;2023-04-03T10:25:03;11.10;68.80
2893;DHT22;1456;51.840;12.184;2023-04-03T10:38:40;12.10;68.30
2893;DHT22;1456;51.840;12.184;2023-04-03T10:46:50;13.10;64.30
2893;DHT22;1456;51.840;12.184;2023-04-03T10:54:37;14.40;66.40
2893;DHT22;1456;51.840;12.184;2023-04-03T10:57:08;14.00;58.40
2893;DHT22;1456;51.840;12.184;2023-04-03T10:59:35;13.00;57.50
2893;DHT22;1456;51.840;12.184;2023-04-03T11:04:48;11.30;62.00
2893;DHT22;1456;51.840;12.184;2023-04-03T11:07:50;10.70;60.30
2893;DHT22;1456;51.840;12.184;2023-04-03T11:10:13;10.30;62.30
2893;DHT22;1456;51.840;12.184;2023-04-03T11:12:48;10.40;65.30
2893;DHT22;1456;51.840;12.184;2023-04-03T11:15:18;10.30;62.70
2893;DHT22;1456;51.840;12.184;2023-04-03T11:17:53;10.50;61.10
2893;DHT22;1456;51.840;12.184;2023-04-03T11:20:21;11.10;61.80
2893;DHT22;1456;51.840;12.184;2023-04-03T11:25:36;13.00;58.30
2893;DHT22;1456;51.840;12.184;2023-04-03T11:28:05;13.10;57.30
2893;DHT22;1456;51.840;12.184;2023-04-03T11:30:47;12.60;57.80
2893;DHT22;1456;51.840;12.184;2023-04-03T11:35:47;12.20;58.70
2893;DHT22;1456;51.840;12.184;2023-04-03T11:38:15;12.10;61.40
2893;DHT22;1456;51.840;12.184;2023-04-03T11:40:42;13.50;60.00
2893;DHT22;1456;51.840;12.184;2023-04-03T11:43:28;14.40;54.00
2893;DHT22;1456;51.840;12.184;2023-04-03T11:45:56;15.30;54.20
2893;DHT22;1456;51.840;12.184;2023-04-03T11:50:59;17.10;56.60
2893;DHT22;1456;51.840;12.184;2023-04-03T11:53:32;18.10;54.50
2893;DHT22;1456;51.840;12.184;2023-04-03T11:55:59;18.40;50.50
2893;DHT22;1456;51.840;12.184;2023-04-03T11:58:35;17.90;48.70
2893;DHT22;1456;51.840;12.184;2023-04-03T12:05:55;14.60;51.40
2893;DHT22;1456;51.840;12.184;2023-04-03T12:08:29;14.10;51.40
2893;DHT22;1456;51.840;12.184;2023-04-03T12:11:13;13.30;52.70
2893;DHT22;1456;51.840;12.184;2023-04-03T12:13:40;12.50;51.70
2893;DHT22;1456;51.840;12.184;2023-04-03T12:16:06;11.90;53.50
2893;DHT22;1456;51.840;12.184;2023-04-03T12:21:04;11.50;51.50
2893;DHT22;1456;51.840;12.184;2023-04-03T12:23:33;11.10;51.30
2893;DHT22;1456;51.840;12.184;2023-04-03T12:26:01;11.80;52.40
2893;DHT22;1456;51.840;12.184;2023-04-03T12:28:29;12.80;53.20
2893;DHT22;1456;51.840;12.184;2023-04-03T12:30:54;12.30;55.00
2893;DHT22;1456;51.840;12.184;2023-04-03T12:33:29;11.40;51.40
2893;DHT22;1456;51.840;12.184;2023-04-03T12:36:02;11.00;52.30
2893;DHT22;1456;51.840;12.184;2023-04-03T12:51:21;19.40;54.20
2893;DHT22;1456;51.840;12.184;2023-04-03T12:53:49;21.80;47.90
2893;DHT22;1456;51.840;12.184;2023-04-03T12:56:30;21.90;44.60
2893;DHT22;1456;51.840;12.184;2023-04-03T12:59:22;20.20;43.60
2893;DHT22;1456;51.840;12.184;2023-04-03T13:02:02;18.00;44.70
2893;DHT22;1456;51.840;12.184;2023-04-03T13:04:30;16.80;45.60
2893;DHT22;1456;51.840;12.184;2023-04-03T13:06:57;15.90;45.60
2893;DHT22;1456;51.840;12.184;2023-04-03T13:09:27;14.90;47.40
2893;DHT22;1456;51.840;12.184;2023-04-03T13:12:00;14.30;46.30
2893;DHT22;1456;51.840;12.184;2023-04-03T13:14:27;13.20;46.70
2893;DHT22;1456;51.840;12.184;2023-04-03T13:16:55;12.20;48.60
2893;DHT22;1456;51.840;12.184;2023-04-03T13:19:23;11.40;51.30
2893;DHT22;1456;51.840;12.184;2023-04-03T13:22:47;10.90;50.80
2893;DHT22;1456;51.840;12.184;2023-04-03T13:24:39;10.50;52.80
2893;DHT22;1456;51.840;12.184;2023-04-03T13:27:06;10.20;50.70
2893;DHT22;1456;51.840;12.184;2023-04-03T13:29:34;9.90;53.00
2893;DHT22;1456;51.840;12.184;2023-04-03T13:32:02;9.70;53.30
2893;DHT22;1456;51.840;12.184;2023-04-03T13:34:35;9.80;55.20
2893;DHT22;1456;51.840;12.184;2023-04-03T13:37:02;10.00;54.70
2893;DHT22;1456;51.840;12.184;2023-04-03T13:39:34;9.70;52.70
2893;DHT22;1456;51.840;12.184;2023-04-03T13:42:16;9.70;53.50
2893;DHT22;1456;51.840;12.184;2023-04-03T13:44:43;9.60;52.50
2893;DHT22;1456;51.840;12.184;2023-04-03T13:47:22;9.50;53.10
2893;DHT22;1456;51.840;12.184;2023-04-03T13:50:17;9.50;52.60
2893;DHT22;1456;51.840;12.184;2023-04-03T13:52:48;9.70;54.10
2893;DHT22;1456;51.840;12.184;2023-04-03T13:57:57;10.40;55.10
2893;DHT22;1456;51.840;12.184;2023-04-03T14:06:12;13.60;48.80
2893;DHT22;1456;51.840;12.184;2023-04-03T14:08:38;12.90;53.30
2893;DHT22;1456;51.840;12.184;2023-04-03T14:11:03;12.20;50.20
2893;DHT22;1456;51.840;12.184;2023-04-03T14:13:31;11.80;50.80
2893;DHT22;1456;51.840;12.184;2023-04-03T14:15:57;11.30;50.30
2893;DHT22;1456;51.840;12.184;2023-04-03T14:18:23;10.90;52.00
2893;DHT22;1456;51.840;12.184;2023-04-03T14:20:49;10.80;52.20
2893;DHT22;1456;51.840;12.184;2023-04-03T14:23:15;10.60;50.10
2893;DHT22;1456;51.840;12.184;2023-04-03T14:25:41;10.30;53.80
2893;DHT22;1456;51.840;12.184;2023-04-03T14:28:17;10.20;54.40
2893;DHT22;1456;51.840;12.184;2023-04-03T14:30:44;9.90;52.80
2893;DHT22;1456;51.840;12.184;2023-04-03T14:33:16;9.50;53.20
2893;DHT22;1456;51.840;12.184;2023-04-03T14:35:42;9.70;54.00
2893;DHT22;1456;51.840;12.184;2023-04-03T14:38:29;9.70;52.70
2893;DHT22;1456;51.840;12.184;2023-04-03T14:40:57;9.60;52.80
2893;DHT22;1456;51.840;12.184;2023-04-03T14:43:23;9.60;54.30
2893;DHT22;1456;51.840;12.184;2023-04-03T14:45:50;9.50;54.40
2893;DHT22;1456;51.840;12.184;2023-04-03T14:48:20;9.50;53.60
2893;DHT22;1456;51.840;12.184;2023-04-03T14:50:46;9.20;55.80
2893;DHT22;1456;51.840;12.184;2023-04-03T14:53:13;9.00;59.40
2893;DHT22;1456;51.840;12.184;2023-04-03T14:55:44;9.10;57.10
2893;DHT22;1456;51.840;12.184;2023-04-03T14:58:15;8.90;58.20
2893;DHT22;1456;51.840;12.184;2023-04-03T15:00:43;8.70;57.10
2893;DHT22;1456;51.840;12.184;2023-04-03T15:03:18;8.50;54.70
2893;DHT22;1456;51.840;12.184;2023-04-03T15:05:45;8.40;55.80
2893;DHT22;1456;51.840;12.184;2023-04-03T15:08:23;8.00;54.90
2893;DHT22;1456;51.840;12.184;2023-04-03T15:10:50;7.90;57.70
2893;DHT22;1456;51.840;12.184;2023-04-03T15:13:18;8.00;58.80
2893;DHT22;1456;51.840;12.184;2023-04-03T15:15:45;8.00;57.20
2893;DHT22;1456;51.840;12.184;2023-04-03T15:18:15;8.10;59.60
2893;DHT22;1456;51.840;12.184;2023-04-03T15:20:42;8.20;58.90
2893;DHT22;1456;51.840;12.184;2023-04-03T15:23:10;8.10;58.60
2893;DHT22;1456;51.840;12.184;2023-04-03T15:25:38;8.00;58.20
2893;DHT22;1456;51.840;12.184;2023-04-03T15:28:05;8.00;58.20
2893;DHT22;1456;51.840;12.184;2023-04-03T15:30:31;8.00;60.10
2893;DHT22;1456;51.840;12.184;2023-04-03T15:32:57;7.50;57.00
2893;DHT22;1456;51.840;12.184;2023-04-03T15:35:23;7.20;56.70
2893;DHT22;1456;51.840;12.184;2023-04-03T15:37:49;7.30;59.00
2893;DHT22;1456;51.840;12.184;2023-04-03T15:40:16;7.50;59.70
2893;DHT22;1456;51.840;12.184;2023-04-03T15:42:42;7.50;57.60
2893;DHT22;1456;51.840;12.184;2023-04-03T15:45:08;7.50;55.30
2893;DHT22;1456;51.840;12.184;2023-04-03T15:47:35;7.80;58.00
2893;DHT22;1456;51.840;12.184;2023-04-03T15:50:01;8.10;58.60
2893;DHT22;1456;51.840;12.184;2023-04-03T15:52:27;8.10;56.70
2893;DHT22;1456;51.840;12.184;2023-04-03T15:54:53;8.00;56.30
2893;DHT22;1456;51.840;12.184;2023-04-03T15:57:18;7.60;56.60
2893;DHT22;1456;51.840;12.184;2023-04-03T15:59:46;7.40;56.30
2893;DHT22;1456;51.840;12.184;2023-04-03T16:02:12;7.20;56.00
2893;DHT22;1456;51.840;12.184;2023-04-03T16:04:40;7.10;57.80
2893;DHT22;1456;51.840;12.184;2023-04-03T16:07:05;7.20;60.10
2893;DHT22;1456;51.840;12.184;2023-04-03T16:09:35;7.20;59.80
2893;DHT22;1456;51.840;12.184;2023-04-03T16:12:01;7.20;61.80
2893;DHT22;1456;51.840;12.184;2023-04-03T16:14:27;7.10;59.60
2893;DHT22;1456;51.840;12.184;2023-04-03T16:16:56;6.90;62.30
2893;DHT22;1456;51.840;12.184;2023-04-03T16:19:22;6.70;57.70
2893;DHT22;1456;51.840;12.184;2023-04-03T16:21:48;6.70;58.30
2893;DHT22;1456;51.840;12.184;2023-04-03T16:24:14;6.70;56.30
2893;DHT22;1456;51.840;12.184;2023-04-03T16:26:39;6.80;55.10
2893;DHT22;1456;51.840;12.184;2023-04-03T16:29:05;6.70;55.90
2893;DHT22;1456;51.840;12.184;2023-04-03T16:31:32;6.70;57.20
2893;DHT22;1456;51.840;12.184;2023-04-03T16:33:58;6.70;56.10
2893;DHT22;1456;51.840;12.184;2023-04-03T16:36:25;6.50;56.80
2893;DHT22;1456;51.840;12.184;2023-04-03T16:38:51;6.50;58.20
2893;DHT22;1456;51.840;12.184;2023-04-03T16:41:17;6.40;57.40
2893;DHT22;1456;51.840;12.184;2023-04-03T16:43:42;6.30;57.50
2893;DHT22;1456;51.840;12.184;2023-04-03T16:46:08;6.20;56.60
2893;DHT22;1456;51.840;12.184;2023-04-03T16:48:34;6.30;58.80
2893;DHT22;1456;51.840;12.184;2023-04-03T16:50:59;6.40;58.20
2893;DHT22;1456;51.840;12.184;2023-04-03T16:53:27;6.20;57.30
2893;DHT22;1456;51.840;12.184;2023-04-03T16:55:53;6.10;57.10
2893;DHT22;1456;51.840;12.184;2023-04-03T16:58:19;6.00;57.80
2893;DHT22;1456;51.840;12.184;2023-04-03T17:00:46;5.90;58.40
2893;DHT22;1456;51.840;12.184;2023-04-03T17:03:12;5.80;58.00
2893;DHT22;1456;51.840;12.184;2023-04-03T17:05:38;5.70;58.10
2893;DHT22;1456;51.840;12.184;2023-04-03T17:08:03;5.70;58.70
2893;DHT22;1456;51.840;12.184;2023-04-03T17:10:29;5.60;57.40
2893;DHT22;1456;51.840;12.184;2023-04-03T17:12:55;5.50;58.10
2893;DHT22;1456;51.840;12.184;2023-04-03T17:15:21;5.50;58.60
2893;DHT22;1456;51.840;12.184;2023-04-03T17:17:48;5.50;59.30
2893;DHT22;1456;51.840;12.184;2023-04-03T17:20:16;5.60;59.40
2893;DHT22;1456;51.840;12.184;2023-04-03T17:22:42;5.60;58.80
2893;DHT22;1456;51.840;12.184;2023-04-03T17:25:08;5.60;59.50
2893;DHT22;1456;51.840;12.184;2023-04-03T17:27:35;5.60;59.90